Time;durP1;ratioP1;P1;durP2;ratioP2;P2;SDS_P1;SDS_P2;PMS_P1;PMS_P2;Temp;Humidity;BMP_temperature;BMP_pressure;BME280_temperature;BME280_humidity;BME280_pressure;Samples;Min_cycle;Max_cycle;Signal;HPM_P1;HPM_P2
2022/11/26 08:12:58;;;;;;;14.97;10.17;;;;;;;3.42;100.00;148525.61;1726752;83;22473;-64
2022/11/26 08:15:26;;;;;;;13.60;7.95;;;;;;;3.41;100.00;148523.03;1759863;81;20904;-64
2022/11/26 08:17:56;;;;;;;13.28;7.97;;;;;;;3.44;100.00;148530.81;1738910;82;21314;-66
2022/11/26 08:20:23;;;;;;;10.20;6.60;;;;;;;3.47;100.00;148535.97;1762327;81;20896;-66
2022/11/26 08:22:50;;;;;;;13.53;7.30;;;;;;;3.49;100.00;148541.12;1738895;82;21544;-63
2022/11/26 08:25:17;;;;;;;9.73;6.70;;;;;;;3.54;100.00;148554.03;1741787;82;20953;-63
2022/11/26 08:27:43;;;;;;;10.80;6.78;;;;;;;3.57;100.00;148561.77;1741800;82;20941;-67
2022/11/26 08:30:13;;;;;;;11.53;6.28;;;;;;;3.59;100.00;148566.92;1741786;82;21371;-66
2022/11/26 08:32:40;;;;;;;10.38;6.65;;;;;;;3.61;100.00;148570.81;1738954;82;21015;-64
2022/11/26 08:35:08;;;;;;;10.55;6.97;;;;;;;3.60;100.00;148569.50;1738931;82;21400;-64
2022/11/26 08:37:35;;;;;;;10.65;7.50;;;;;;;3.64;100.00;148579.81;1762286;81;20915;-65
2022/11/26 08:40:04;;;;;;;10.10;5.62;;;;;;;3.66;100.00;148583.72;1739072;82;20995;-64
2022/11/26 08:42:32;;;;;;;9.75;6.62;;;;;;;3.71;100.00;148597.92;1762380;81;21800;-64
2022/11/26 08:44:59;;;;;;;8.95;4.97;;;;;;;3.70;100.00;148595.34;1738804;82;20987;-64
2022/11/26 08:47:27;;;;;;;10.88;6.08;;;;;;;3.73;100.00;148603.09;1762306;81;20844;-64
2022/11/26 08:49:54;;;;;;;8.75;5.65;;;;;;;3.76;100.00;148609.56;1710234;82;20960;-64
2022/11/26 08:52:20;;;;;;;11.28;6.55;;;;;;;3.77;100.00;148610.81;1762435;81;20907;-63
2022/11/26 08:54:47;;;;;;;8.45;5.83;;;;;;;3.78;100.00;148613.41;1738984;82;22189;-64
2022/11/26 08:57:15;;;;;;;8.63;5.55;;;;;;;3.83;100.00;148626.30;1762324;81;20852;-63
2022/11/26 08:59:41;;;;;;;9.20;6.30;;;;;;;3.86;100.00;148634.05;1738824;82;21078;-64
2022/11/26 09:02:10;;;;;;;8.80;5.87;;;;;;;3.88;100.00;148639.25;1741690;82;20855;-63
2022/11/26 09:04:39;;;;;;;9.70;5.70;;;;;;;3.95;100.00;148656.00;1742126;82;20879;-63
2022/11/26 09:07:06;;;;;;;9.58;5.00;;;;;;;3.95;100.00;148657.31;1738940;82;21865;-64
2022/11/26 09:09:32;;;;;;;8.45;5.08;;;;;;;3.92;100.00;148649.56;1738911;82;20987;-63
2022/11/26 09:12:00;;;;;;;10.18;6.15;;;;;;;3.89;100.00;148641.83;1758890;81;21007;-63
2022/11/26 09:14:30;;;;;;;8.25;5.22;;;;;;;3.89;100.00;148641.83;1754775;81;20892;-64
2022/11/26 09:16:57;;;;;;;6.87;4.33;;;;;;;3.91;100.00;148645.67;1754835;81;20837;-65
2022/11/26 09:19:24;;;;;;;7.90;5.00;;;;;;;3.90;100.00;148644.41;1754839;81;21404;-65
2022/11/26 09:21:51;;;;;;;15.80;7.17;;;;;;;3.88;100.00;148639.25;1754758;81;20994;-65
2022/11/26 09:24:17;;;;;;;14.05;6.15;;;;;;;3.86;100.00;148634.05;1754677;81;20857;-65
2022/11/26 09:26:44;;;;;;;14.55;5.58;;;;;;;3.87;100.00;148636.67;1754758;81;20964;-65
2022/11/26 09:29:16;;;;;;;10.20;6.42;;;;;;;3.85;100.00;148632.78;1754752;81;20955;-65
2022/11/26 09:31:44;;;;;;;10.43;6.53;;;;;;;3.86;100.00;148634.05;1755025;81;21333;-65
2022/11/26 09:34:12;;;;;;;7.87;4.83;;;;;;;3.86;100.00;148634.05;1754503;81;20924;-63
2022/11/26 09:36:39;;;;;;;15.00;7.08;;;;;;;3.87;100.00;148636.67;1754944;81;20877;-66
2022/11/26 09:39:06;;;;;;;6.65;4.60;;;;;;;3.86;100.00;148635.36;1754756;81;20868;-64
2022/11/26 09:42:06;;;;;;;10.90;5.30;;;;;;;3.86;100.00;148634.05;1754751;81;20943;-64
2022/11/26 09:44:54;;;;;;;6.80;4.97;;;;;;;3.85;100.00;148631.45;1754816;81;21324;-66
2022/11/26 09:47:24;;;;;;;7.75;5.22;;;;;;;3.87;100.00;148636.67;1754260;81;21018;-63
2022/11/26 09:50:11;;;;;;;8.08;5.47;;;;;;;3.86;100.00;148634.05;1754927;81;20943;-64
2022/11/26 09:52:55;;;;;;;8.45;5.55;;;;;;;3.88;100.00;148639.25;1754820;81;20853;-66
2022/11/26 09:55:31;;;;;;;9.33;5.62;;;;;;;3.94;100.00;148654.73;1754776;81;20868;-63
2022/11/26 09:58:22;;;;;;;7.65;4.87;;;;;;;3.94;100.00;148654.73;1754626;81;21187;-63
2022/11/26 10:00:51;;;;;;;8.05;4.78;;;;;;;3.95;100.00;148657.31;1754596;81;20912;-64
2022/11/26 10:03:31;;;;;;;9.75;5.45;;;;;;;3.93;100.00;148652.16;1754816;81;20907;-64
2022/11/26 10:06:10;;;;;;;8.78;5.83;;;;;;;3.94;100.00;148654.73;1754850;81;20967;-67
2022/11/26 10:09:10;;;;;;;10.43;6.78;;;;;;;3.96;100.00;148658.58;1754436;81;21297;-64
2022/11/26 10:11:58;;;;;;;8.90;5.50;;;;;;;3.98;100.00;148665.05;1755979;81;21063;-63
2022/11/26 10:14:49;;;;;;;16.27;5.85;;;;;;;4.00;100.00;148668.94;1737672;82;20893;-64
2022/11/26 19:26:14;;;;;;;17.83;10.33;;;;;;;2.93;100.00;148403.06;1809234;77;23428;-62
2022/11/26 19:28:41;;;;;;;17.00;9.95;;;;;;;2.87;100.00;148387.55;1762112;80;20937;-62
2022/11/26 19:31:11;;;;;;;15.80;8.85;;;;;;;2.87;100.00;148387.55;1761889;81;21488;-62
2022/11/26 19:33:38;;;;;;;16.60;9.18;;;;;;;2.88;100.00;148388.86;1762029;81;20933;-62
2022/11/26 19:36:08;;;;;;;14.25;8.65;;;;;;;2.86;100.00;148386.28;1762026;81;20898;-62
2022/11/26 19:38:42;;;;;;;15.93;9.13;;;;;;;2.87;100.00;148387.55;1762272;81;20925;-63
2022/11/26 19:41:11;;;;;;;13.08;7.33;;;;;;;2.87;100.00;148387.55;1761264;80;21327;-62
2022/11/26 19:43:40;;;;;;;18.25;8.93;;;;;;;2.86;100.00;148386.28;1761531;81;21257;-62
2022/11/26 19:46:16;;;;;;;14.47;8.00;;;;;;;2.88;100.00;148388.86;1762205;81;21394;-62
2022/11/26 19:48:44;;;;;;;17.00;9.40;;;;;;;2.88;100.00;148388.86;1762146;81;21405;-62
2022/11/26 19:51:11;;;;;;;13.53;8.28;;;;;;;2.88;100.00;148388.86;1762054;80;20921;-62
2022/11/26 19:53:39;;;;;;;15.20;8.13;;;;;;;2.88;100.00;148390.17;1762266;81;20909;-62
2022/11/26 19:56:11;;;;;;;13.68;7.72;;;;;;;2.88;100.00;148388.86;1762220;81;20972;-62
2022/11/26 19:58:40;;;;;;;20.70;8.75;;;;;;;2.88;100.00;148388.86;1762122;80;20885;-62
2022/11/26 20:01:09;;;;;;;14.47;7.65;;;;;;;2.86;100.00;148386.28;1762006;81;21410;-62
2022/11/26 20:03:36;;;;;;;13.22;8.35;;;;;;;2.88;100.00;148390.17;1762328;80;21453;-62
2022/11/26 20:06:05;;;;;;;12.13;7.22;;;;;;;2.87;100.00;148387.55;1762135;81;21382;-62
2022/11/26 20:08:33;;;;;;;13.03;7.33;;;;;;;2.86;100.00;148386.28;1762304;81;21229;-62
2022/11/26 20:11:06;;;;;;;12.93;7.40;;;;;;;2.86;100.00;148386.28;1761995;80;20909;-62
2022/11/26 20:13:35;;;;;;;11.33;6.72;;;;;;;2.86;100.00;148386.28;1762386;80;20893;-62
2022/11/26 20:16:20;;;;;;;10.35;6.58;;;;;;;2.87;100.00;148387.55;1762025;81;20901;-62
2022/11/26 20:18:46;;;;;;;10.78;5.83;;;;;;;2.87;100.00;148387.55;1762519;81;25770;-59
2022/11/26 20:21:18;;;;;;;11.05;7.03;;;;;;;2.86;100.00;148386.28;1761924;81;21360;-59
2022/11/26 20:23:46;;;;;;;13.13;7.33;;;;;;;2.88;100.00;148390.17;1762279;80;20972;-61
2022/11/26 20:26:20;;;;;;;11.22;6.72;;;;;;;2.88;100.00;148388.86;1757432;81;21315;-62
2022/11/26 20:28:47;;;;;;;12.43;7.35;;;;;;;2.86;100.00;148386.28;1757149;81;20890;-61
2022/11/26 20:31:14;;;;;;;11.15;6.15;;;;;;;2.86;100.00;148386.28;1748521;82;21005;-61
2022/11/26 20:33:41;;;;;;;14.07;8.00;;;;;;;2.86;100.00;148386.28;1748247;80;22079;-64
2022/11/26 20:36:10;;;;;;;14.83;8.38;;;;;;;2.86;100.00;148384.97;1748074;82;20962;-65
2022/11/26 20:38:38;;;;;;;14.23;7.80;;;;;;;2.84;100.00;148381.12;1748042;82;20938;-64
2022/11/26 20:41:11;;;;;;;12.65;7.55;;;;;;;2.84;100.00;148379.81;1747873;82;20898;-64
2022/11/26 20:43:38;;;;;;;12.85;7.15;;;;;;;2.82;100.00;148375.97;1747824;81;21407;-64
2022/11/26 20:46:06;;;;;;;14.63;7.85;;;;;;;2.80;100.00;148370.81;1747908;80;21869;-65
2022/11/26 20:48:33;;;;;;;12.68;6.87;;;;;;;2.80;100.00;148370.81;1748015;81;20969;-64
2022/11/26 20:51:05;;;;;;;12.90;7.65;;;;;;;2.80;100.00;148369.50;1747862;82;20997;-65
2022/11/26 20:53:33;;;;;;;14.83;8.13;;;;;;;2.77;100.00;148363.09;1748029;81;20973;-65
2022/11/26 20:56:00;;;;;;;14.53;7.67;;;;;;;2.76;100.00;148359.19;1747993;82;21402;-65
2022/11/26 20:58:27;;;;;;;12.07;7.33;;;;;;;2.76;100.00;148359.19;1747743;81;21202;-65
2022/11/26 21:00:54;;;;;;;14.98;8.40;;;;;;;2.75;100.00;148357.88;1747599;80;20969;-65
2022/11/26 21:03:22;;;;;;;14.73;8.15;;;;;;;2.76;100.00;148359.19;1747782;82;21036;-62
2022/11/26 21:05:49;;;;;;;12.63;7.90;;;;;;;2.77;100.00;148363.09;1747621;82;20895;-61
2022/11/26 21:08:17;;;;;;;14.63;8.20;;;;;;;2.76;100.00;148360.45;1747697;81;20920;-61
2022/11/26 21:10:44;;;;;;;13.22;7.53;;;;;;;2.77;100.00;148361.77;1747504;82;21254;-59
2022/11/26 21:13:13;;;;;;;17.52;8.83;;;;;;;2.77;100.00;148363.09;1747624;82;21355;-61
2022/11/26 21:15:40;;;;;;;18.12;8.30;;;;;;;2.78;100.00;148365.66;1748134;81;21343;-59
2022/11/26 21:18:08;;;;;;;13.62;6.65;;;;;;;2.80;100.00;148369.50;1747870;81;20993;-59
2022/11/26 21:20:40;;;;;;;14.90;9.23;;;;;;;2.79;100.00;148368.23;1747711;81;20997;-59
2022/11/26 21:23:08;;;;;;;15.60;7.70;;;;;;;2.80;100.00;148370.81;1748009;80;21222;-59
2022/11/26 21:25:40;;;;;;;13.72;7.72;;;;;;;2.79;100.00;148368.23;1747587;80;20965;-59
2022/11/26 21:28:07;;;;;;;15.80;8.93;;;;;;;2.78;100.00;148364.34;1747872;82;20929;-59
2022/11/26 21:30:34;;;;;;;15.20;9.58;;;;;;;2.78;100.00;148364.34;1747874;81;21024;-59
2022/11/26 21:33:01;;;;;;;16.30;8.90;;;;;;;2.79;100.00;148368.23;1747903;81;20874;-60
2022/11/26 21:35:28;;;;;;;13.70;8.20;;;;;;;2.79;100.00;148368.23;1747915;81;22082;-60
2022/11/26 21:37:56;;;;;;;22.37;8.70;;;;;;;2.78;100.00;148365.66;1747845;82;20909;-60
2022/11/26 21:40:23;;;;;;;17.42;9.03;;;;;;;2.78;100.00;148365.66;1709429;82;21493;-60
2022/11/26 21:42:50;;;;;;;15.80;9.45;;;;;;;2.80;100.00;148370.81;1747742;82;20934;-60
2022/11/26 21:45:17;;;;;;;16.45;9.45;;;;;;;2.81;100.00;148373.41;1747994;82;20933;-60
2022/11/26 21:47:44;;;;;;;14.30;7.83;;;;;;;2.81;100.00;148373.41;1747826;82;21087;-60
2022/11/26 21:50:11;;;;;;;15.53;8.58;;;;;;;2.81;100.00;148373.41;1747814;81;20921;-60
2022/11/26 21:52:38;;;;;;;14.80;8.10;;;;;;;2.81;100.00;148373.41;1747664;82;20938;-60
2022/11/26 21:55:06;;;;;;;16.12;8.65;;;;;;;2.80;100.00;148369.50;1747791;82;21611;-60
2022/11/26 21:57:34;;;;;;;16.20;9.65;;;;;;;2.80;100.00;148369.50;1747810;82;21482;-60
2022/11/26 22:00:00;;;;;;;16.90;8.95;;;;;;;2.78;100.00;148365.66;1747924;82;21254;-60
2022/11/26 22:02:27;;;;;;;15.88;8.95;;;;;;;2.78;100.00;148365.66;1747666;81;21371;-60
2022/11/26 22:04:53;;;;;;;14.13;9.20;;;;;;;2.78;100.00;148365.66;1747850;82;20858;-60
2022/11/26 22:07:21;;;;;;;14.85;8.25;;;;;;;2.79;100.00;148368.23;1747796;82;20933;-60
2022/11/26 22:09:47;;;;;;;14.98;8.53;;;;;;;2.80;100.00;148369.50;1747785;80;21053;-60
2022/11/26 22:12:14;;;;;;;14.25;8.68;;;;;;;2.78;100.00;148364.34;1747810;82;21074;-60
2022/11/26 22:14:41;;;;;;;15.60;8.80;;;;;;;2.77;100.00;148363.09;1747831;82;21343;-60
2022/11/26 22:17:09;;;;;;;15.53;9.45;;;;;;;2.77;100.00;148361.77;1748108;81;20870;-60
2022/11/26 22:19:36;;;;;;;15.10;9.43;;;;;;;2.77;100.00;148363.09;1747778;82;20986;-60
2022/11/26 22:22:03;;;;;;;16.85;9.13;;;;;;;2.77;100.00;148363.09;1747740;80;21013;-60
2022/11/26 22:24:30;;;;;;;15.30;8.50;;;;;;;2.78;100.00;148365.66;1747746;82;21293;-60
2022/11/26 22:26:58;;;;;;;16.40;9.50;;;;;;;2.77;100.00;148363.09;1747647;81;21450;-60
2022/11/26 22:29:24;;;;;;;16.48;9.08;;;;;;;2.77;100.00;148363.09;1747749;82;20961;-59
2022/11/26 22:31:51;;;;;;;15.28;8.73;;;;;;;2.77;100.00;148361.77;1747735;82;20938;-59
2022/11/26 22:34:20;;;;;;;17.50;9.80;;;;;;;2.77;100.00;148363.09;1747689;81;21470;-59
2022/11/26 22:36:48;;;;;;;14.83;8.55;;;;;;;2.76;100.00;148360.45;1747706;81;21176;-59
2022/11/26 22:39:16;;;;;;;16.40;9.68;;;;;;;2.76;100.00;148359.19;1747827;82;20942;-60
2022/11/26 22:41:44;;;;;;;17.50;9.65;;;;;;;2.77;100.00;148363.09;1747887;81;20928;-60
2022/11/26 22:44:12;;;;;;;15.72;9.45;;;;;;;2.79;100.00;148366.92;1748054;82;20906;-59
2022/11/26 22:46:38;;;;;;;15.83;9.73;;;;;;;2.78;100.00;148365.66;1747786;81;20926;-60
2022/11/26 22:49:06;;;;;;;18.40;9.98;;;;;;;2.80;100.00;148369.50;1747757;82;22168;-60
2022/11/26 22:51:33;;;;;;;14.45;8.65;;;;;;;2.80;100.00;148370.81;1747462;82;21371;-59
2022/11/26 22:54:05;;;;;;;16.55;9.28;;;;;;;2.80;100.00;148370.81;1747755;82;20926;-60
2022/11/26 22:56:33;;;;;;;14.98;9.00;;;;;;;2.81;100.00;148373.41;1747959;82;20890;-60
2022/11/26 22:59:00;;;;;;;18.40;9.90;;;;;;;2.81;100.00;148373.41;1747847;82;21316;-60
2022/11/26 23:01:30;;;;;;;19.92;10.98;;;;;;;2.82;100.00;148374.66;1747716;82;21387;-61
2022/11/26 23:03:58;;;;;;;20.80;9.93;;;;;;;2.81;100.00;148373.41;1747560;82;20878;-62
2022/11/26 23:06:28;;;;;;;18.48;9.98;;;;;;;2.81;100.00;148372.08;1747979;82;20974;-62
